الصفحة الرئيسية
METAR-TAF:

METAR-TAF

مطار :

مطار تان سون نهات الدولي

هو تشي منه, فيتنام

دائرة عرض: 10-49N, خط طول: 106-40E, ارتفاع: 19 متر

مراقبة الطقس الحالي

تاريخ ووقت الإصدار 40 دقيقة قبل الساعة 23:00UTC
ريح 2 عقدة من الجنوب الغربي
درجة الحرارة 27°درجة مئوية
الرطوبة 94%
ضغط 1009 hPa
الرؤية 10 كم أو أكثر
غيوم قليلة على ارتفاع 1700 قدم

METAR: VVTS 032300Z 22002KT 9999 FEW017 27/26 Q1009 NOSIG

زمن: 06:40 (23:40 UTC)

توقعات

تاريخ ووقت الإصدار 6ساعات و 40 دقيقة قبل الساعة 17:00UTC
التوقعات صالحة من03 الساعة 18 UTC إلى 04 الساعة 24 UTC
ريح 3 عقدةمن اتجاهات متغيرة
الرؤية 10 كم أو أكثر
غيوم متفرقة على ارتفاع 1500 قدم
غيوم متفرقة على ارتفاع 4000 قدم
أصبح
من 04 الساعة 00 UTC إلى 04 الساعة 02 UTC
ريح 10 عقدة من الغرب/الجنوب الغربي
مؤقت
من 04 الساعة 03 UTC إلى 04 الساعة 08 UTC
ريح 17 عقدة من الغرب/الجنوب الغربي تتزايد حتى 30 عقدة
الرؤية: 3000 متر
غيوم مفككة على ارتفاع 1300 قدم
غيوم متفرقة على ارتفاع 1500 قدم, مزنة ركامية.
عاصفة رعدية, مطر

TAF: VVTS 031700Z 0318/0424 VRB03KT 9999 SCT015 SCT040 BECMG 0400/0402 24010KT TEMPO 0403/0408 24017G30KT 3000 TSRA BKN013 SCT015CB

أرصاد الطقس والتوقعات من أكثر من 4000 مطار (تقارير الطقس للمطار METAR والتنبؤ بالطقس بالمطارTAF).

المحطات المتاحة هي النقط الصفراء والحمراء على الخريطة.

حرك المؤشر فوق النقطة لمعرفة اسم المحطة.

ثم انقر لمعرفة أرصاد وتوقعات الطقس.

لتغيير الخارطة: اضغط على الأزرار الخضراء مع رمز الصليب الأسود للتكبير. على الزر الأخضر مع شرطة للتصغير، أو على الأسهم الخضراء للخرائط المجاورة.


METAR-TAF: